sensor_id;sensor_type;location;lat;lon;timestamp;pressure;altitude;pressure_sealevel;temperature
62611;BMP280;48683;48.084;17.272;2023-06-22T00:00:48;100607.44;;;21.95
62611;BMP280;48683;48.084;17.272;2023-06-22T00:03:14;100605.78;;;21.97
62611;BMP280;48683;48.084;17.272;2023-06-22T00:05:39;100589.78;;;21.77
62611;BMP280;48683;48.084;17.272;2023-06-22T00:08:05;100603.16;;;21.85
62611;BMP280;48683;48.084;17.272;2023-06-22T00:10:30;100600.09;;;21.73
62611;BMP280;48683;48.084;17.272;2023-06-22T00:12:56;100603.13;;;21.75
62611;BMP280;48683;48.084;17.272;2023-06-22T00:15:21;100600.06;;;21.64
62611;BMP280;48683;48.084;17.272;2023-06-22T00:17:46;100601.41;;;21.60
62611;BMP280;48683;48.084;17.272;2023-06-22T00:20:12;100606.78;;;21.72
62611;BMP280;48683;48.084;17.272;2023-06-22T00:22:39;100596.28;;;21.62
62611;BMP280;48683;48.084;17.272;2023-06-22T00:25:06;100597.81;;;21.63
62611;BMP280;48683;48.084;17.272;2023-06-22T00:27:32;100603.66;;;21.52
62611;BMP280;48683;48.084;17.272;2023-06-22T00:29:57;100592.75;;;21.52
62611;BMP280;48683;48.084;17.272;2023-06-22T00:32:22;100601.97;;;21.46
62611;BMP280;48683;48.084;17.272;2023-06-22T00:34:47;100602.13;;;21.42
62611;BMP280;48683;48.084;17.272;2023-06-22T00:37:13;100595.75;;;21.45
62611;BMP280;48683;48.084;17.272;2023-06-22T00:39:38;100598.81;;;21.47
62611;BMP280;48683;48.084;17.272;2023-06-22T00:42:04;100612.47;;;21.47
62611;BMP280;48683;48.084;17.272;2023-06-22T00:44:29;100613.69;;;21.46
62611;BMP280;48683;48.084;17.272;2023-06-22T00:46:55;100615.50;;;21.49
62611;BMP280;48683;48.084;17.272;2023-06-22T00:49:20;100610.94;;;21.46
62611;BMP280;48683;48.084;17.272;2023-06-22T00:51:46;100608.06;;;21.50
62611;BMP280;48683;48.084;17.272;2023-06-22T00:54:12;100608.06;;;21.50
62611;BMP280;48683;48.084;17.272;2023-06-22T00:56:40;100603.66;;;21.43
62611;BMP280;48683;48.084;17.272;2023-06-22T00:59:06;100595.59;;;21.40
62611;BMP280;48683;48.084;17.272;2023-06-22T01:01:31;100591.03;;;21.37
62611;BMP280;48683;48.084;17.272;2023-06-22T01:03:57;100583.88;;;21.30
62611;BMP280;48683;48.084;17.272;2023-06-22T01:06:31;100580.56;;;21.44
62611;BMP280;48683;48.084;17.272;2023-06-22T01:09:14;100589.69;;;21.41
62611;BMP280;48683;48.084;17.272;2023-06-22T01:11:48;100575.59;;;21.43
62611;BMP280;48683;48.084;17.272;2023-06-22T01:14:23;100567.28;;;21.55
62611;BMP280;48683;48.084;17.272;2023-06-22T01:16:50;100586.41;;;21.55
62611;BMP280;48683;48.084;17.272;2023-06-22T01:19:35;100586.59;;;21.70
62611;BMP280;48683;48.084;17.272;2023-06-22T01:22:03;100578.50;;;21.57
62611;BMP280;48683;48.084;17.272;2023-06-22T01:24:33;100578.50;;;21.57
62611;BMP280;48683;48.084;17.272;2023-06-22T01:27:21;100569.78;;;21.41
62611;BMP280;48683;48.084;17.272;2023-06-22T01:29:52;100573.28;;;21.32
62611;BMP280;48683;48.084;17.272;2023-06-22T01:32:28;100576.88;;;21.29
62611;BMP280;48683;48.084;17.272;2023-06-22T01:34:56;100579.47;;;21.33
62611;BMP280;48683;48.084;17.272;2023-06-22T01:37:22;100577.38;;;21.37
62611;BMP280;48683;48.084;17.272;2023-06-22T01:39:48;100576.16;;;21.38
62611;BMP280;48683;48.084;17.272;2023-06-22T01:42:14;100573.81;;;21.18
62611;BMP280;48683;48.084;17.272;2023-06-22T01:44:39;100574.00;;;21.23
62611;BMP280;48683;48.084;17.272;2023-06-22T01:47:06;100577.66;;;21.29
62611;BMP280;48683;48.084;17.272;2023-06-22T01:49:32;100569.22;;;21.46
62611;BMP280;48683;48.084;17.272;2023-06-22T01:51:57;100560.13;;;21.49
62611;BMP280;48683;48.084;17.272;2023-06-22T01:54:23;100560.88;;;21.49
62611;BMP280;48683;48.084;17.272;2023-06-22T01:56:49;100572.72;;;21.46
62611;BMP280;48683;48.084;17.272;2023-06-22T01:59:25;100563.47;;;21.53
62611;BMP280;48683;48.084;17.272;2023-06-22T02:02:06;100557.88;;;21.56
62611;BMP280;48683;48.084;17.272;2023-06-22T02:04:39;100561.31;;;21.48
62611;BMP280;48683;48.084;17.272;2023-06-22T02:07:11;100562.06;;;21.39
62611;BMP280;48683;48.084;17.272;2023-06-22T02:09:38;100559.75;;;21.28
62611;BMP280;48683;48.084;17.272;2023-06-22T02:12:06;100550.50;;;21.26
62611;BMP280;48683;48.084;17.272;2023-06-22T02:14:34;100555.72;;;21.42
62611;BMP280;48683;48.084;17.272;2023-06-22T02:17:00;100551.31;;;21.45
62611;BMP280;48683;48.084;17.272;2023-06-22T02:19:27;100548.72;;;21.41
62611;BMP280;48683;48.084;17.272;2023-06-22T02:21:52;100556.44;;;21.34
62611;BMP280;48683;48.084;17.272;2023-06-22T02:24:17;100565.34;;;21.25
62611;BMP280;48683;48.084;17.272;2023-06-22T02:26:43;100568.69;;;21.20
62611;BMP280;48683;48.084;17.272;2023-06-22T02:29:10;100571.72;;;21.22
62611;BMP280;48683;48.084;17.272;2023-06-22T02:31:35;100564.16;;;21.26
62611;BMP280;48683;48.084;17.272;2023-06-22T02:34:01;100556.22;;;21.19
62611;BMP280;48683;48.084;17.272;2023-06-22T02:36:26;100558.19;;;21.18
62611;BMP280;48683;48.084;17.272;2023-06-22T02:38:53;100557.47;;;21.27
62611;BMP280;48683;48.084;17.272;2023-06-22T02:41:19;100547.47;;;21.24
62611;BMP280;48683;48.084;17.272;2023-06-22T02:43:45;100546.38;;;21.21
62611;BMP280;48683;48.084;17.272;2023-06-22T02:46:11;100557.44;;;21.18
62611;BMP280;48683;48.084;17.272;2023-06-22T02:48:38;100564.84;;;21.17
62611;BMP280;48683;48.084;17.272;2023-06-22T02:51:03;100561.13;;;21.24
62611;BMP280;48683;48.084;17.272;2023-06-22T02:53:29;100549.31;;;21.36
62611;BMP280;48683;48.084;17.272;2023-06-22T02:55:55;100554.75;;;21.27
62611;BMP280;48683;48.084;17.272;2023-06-22T02:58:20;100564.16;;;21.26
62611;BMP280;48683;48.084;17.272;2023-06-22T03:00:46;100557.44;;;21.18
62611;BMP280;48683;48.084;17.272;2023-06-22T03:03:11;100551.41;;;21.23
62611;BMP280;48683;48.084;17.272;2023-06-22T03:05:37;100551.56;;;21.28
62611;BMP280;48683;48.084;17.272;2023-06-22T03:08:02;100557.28;;;21.21
62611;BMP280;48683;48.084;17.272;2023-06-22T03:10:27;100538.31;;;21.18
62611;BMP280;48683;48.084;17.272;2023-06-22T03:12:54;100546.72;;;21.02
62611;BMP280;48683;48.084;17.272;2023-06-22T03:15:19;100546.72;;;21.02
62611;BMP280;48683;48.084;17.272;2023-06-22T03:17:45;100549.75;;;20.73
62611;BMP280;48683;48.084;17.272;2023-06-22T03:20:11;100557.81;;;20.55
62611;BMP280;48683;48.084;17.272;2023-06-22T03:22:41;100565.63;;;20.65
62611;BMP280;48683;48.084;17.272;2023-06-22T03:25:07;100565.75;;;20.62
62611;BMP280;48683;48.084;17.272;2023-06-22T03:27:38;100572.28;;;20.43
62611;BMP280;48683;48.084;17.272;2023-06-22T03:30:04;100579.84;;;20.39
62611;BMP280;48683;48.084;17.272;2023-06-22T03:32:30;100587.88;;;20.42
62611;BMP280;48683;48.084;17.272;2023-06-22T03:34:55;100572.53;;;20.57
62611;BMP280;48683;48.084;17.272;2023-06-22T03:37:26;100571.78;;;20.57
62611;BMP280;48683;48.084;17.272;2023-06-22T03:39:52;100571.69;;;20.91
62611;BMP280;48683;48.084;17.272;2023-06-22T03:42:18;100572.88;;;21.12
62611;BMP280;48683;48.084;17.272;2023-06-22T03:44:43;100569.56;;;21.17
62611;BMP280;48683;48.084;17.272;2023-06-22T03:47:09;100573.50;;;21.16
62611;BMP280;48683;48.084;17.272;2023-06-22T03:49:35;100579.59;;;21.20
62611;BMP280;48683;48.084;17.272;2023-06-22T03:52:01;100570.31;;;21.17
62611;BMP280;48683;48.084;17.272;2023-06-22T03:54:28;100576.31;;;21.34
62611;BMP280;48683;48.084;17.272;2023-06-22T03:56:53;100572.25;;;21.48
62611;BMP280;48683;48.084;17.272;2023-06-22T03:59:19;100567.44;;;21.61
62611;BMP280;48683;48.084;17.272;2023-06-22T04:01:44;100566.38;;;21.67
62611;BMP280;48683;48.084;17.272;2023-06-22T04:04:10;100570.53;;;21.81
62611;BMP280;48683;48.084;17.272;2023-06-22T04:06:35;100573.28;;;21.90
62611;BMP280;48683;48.084;17.272;2023-06-22T04:09:01;100573.44;;;21.96
62611;BMP280;48683;48.084;17.272;2023-06-22T04:11:26;100578.31;;;22.01
62611;BMP280;48683;48.084;17.272;2023-06-22T04:13:51;100583.19;;;22.15
62611;BMP280;48683;48.084;17.272;2023-06-22T04:16:17;100580.00;;;22.16
62611;BMP280;48683;48.084;17.272;2023-06-22T04:18:42;100582.59;;;22.29
62611;BMP280;48683;48.084;17.272;2023-06-22T04:21:07;100585.91;;;22.42
62611;BMP280;48683;48.084;17.272;2023-06-22T04:23:33;100583.19;;;22.51
62611;BMP280;48683;48.084;17.272;2023-06-22T04:25:58;100556.47;;;22.37
62611;BMP280;48683;48.084;17.272;2023-06-22T04:30:50;100585.16;;;22.51
62611;BMP280;48683;48.084;17.272;2023-06-22T04:33:16;100588.16;;;22.53
62611;BMP280;48683;48.084;17.272;2023-06-22T04:35:44;100581.97;;;22.43
62611;BMP280;48683;48.084;17.272;2023-06-22T04:38:12;100594.56;;;22.50
62611;BMP280;48683;48.084;17.272;2023-06-22T04:40:39;100598.50;;;22.67
62611;BMP280;48683;48.084;17.272;2023-06-22T04:43:04;100593.50;;;22.84
62611;BMP280;48683;48.084;17.272;2023-06-22T04:45:34;100587.88;;;22.87
62611;BMP280;48683;48.084;17.272;2023-06-22T04:48:03;100581.31;;;22.85
62611;BMP280;48683;48.084;17.272;2023-06-22T04:50:28;100584.91;;;23.09
62611;BMP280;48683;48.084;17.272;2023-06-22T04:52:53;100586.09;;;23.17
62611;BMP280;48683;48.084;17.272;2023-06-22T04:55:19;100586.25;;;23.13
62611;BMP280;48683;48.084;17.272;2023-06-22T04:57:48;100587.91;;;23.20
62611;BMP280;48683;48.084;17.272;2023-06-22T05:00:18;100587.72;;;23.24
62611;BMP280;48683;48.084;17.272;2023-06-22T05:02:48;100582.41;;;23.20
62611;BMP280;48683;48.084;17.272;2023-06-22T05:05:14;100588.28;;;23.37
62611;BMP280;48683;48.084;17.272;2023-06-22T05:07:42;100585.84;;;23.39
62611;BMP280;48683;48.084;17.272;2023-06-22T05:10:09;100590.00;;;23.34
62611;BMP280;48683;48.084;17.272;2023-06-22T05:12:36;100599.97;;;23.46
62611;BMP280;48683;48.084;17.272;2023-06-22T05:15:01;100591.72;;;23.55
62611;BMP280;48683;48.084;17.272;2023-06-22T05:17:27;100591.72;;;23.55
62611;BMP280;48683;48.084;17.272;2023-06-22T05:19:52;100590.84;;;23.49
62611;BMP280;48683;48.084;17.272;2023-06-22T05:22:18;100605.72;;;23.57
62611;BMP280;48683;48.084;17.272;2023-06-22T05:24:44;100605.31;;;22.99
62611;BMP280;48683;48.084;17.272;2023-06-22T05:27:10;100606.81;;;23.00
62611;BMP280;48683;48.084;17.272;2023-06-22T05:29:36;100616.03;;;23.30
62611;BMP280;48683;48.084;17.272;2023-06-22T05:32:02;100614.28;;;23.41
62611;BMP280;48683;48.084;17.272;2023-06-22T05:34:28;100614.59;;;23.43
62611;BMP280;48683;48.084;17.272;2023-06-22T05:36:53;100618.44;;;23.70
62611;BMP280;48683;48.084;17.272;2023-06-22T05:39:18;100608.72;;;23.69
62611;BMP280;48683;48.084;17.272;2023-06-22T05:41:45;100621.63;;;23.77
62611;BMP280;48683;48.084;17.272;2023-06-22T05:44:11;100624.59;;;23.88
62611;BMP280;48683;48.084;17.272;2023-06-22T05:46:36;100617.13;;;23.89
62611;BMP280;48683;48.084;17.272;2023-06-22T05:49:02;100620.88;;;23.68
62611;BMP280;48683;48.084;17.272;2023-06-22T05:51:27;100619.88;;;23.89
62611;BMP280;48683;48.084;17.272;2023-06-22T05:53:53;100624.34;;;24.01
62611;BMP280;48683;48.084;17.272;2023-06-22T05:56:18;100631.34;;;24.02
62611;BMP280;48683;48.084;17.272;2023-06-22T05:58:43;100618.00;;;24.19
62611;BMP280;48683;48.084;17.272;2023-06-22T06:01:09;100609.03;;;24.09
62611;BMP280;48683;48.084;17.272;2023-06-22T06:03:34;100619.06;;;24.36
62611;BMP280;48683;48.084;17.272;2023-06-22T06:06:06;100620.97;;;24.30
62611;BMP280;48683;48.084;17.272;2023-06-22T06:08:31;100607.47;;;24.41
62611;BMP280;48683;48.084;17.272;2023-06-22T06:10:56;100617.91;;;24.66
62611;BMP280;48683;48.084;17.272;2023-06-22T06:13:22;100615.59;;;24.88
62611;BMP280;48683;48.084;17.272;2023-06-22T06:15:48;100610.63;;;24.78
62611;BMP280;48683;48.084;17.272;2023-06-22T06:18:13;100605.41;;;24.80
62611;BMP280;48683;48.084;17.272;2023-06-22T06:20:38;100601.44;;;24.66
62611;BMP280;48683;48.084;17.272;2023-06-22T06:23:04;100610.75;;;24.98
62611;BMP280;48683;48.084;17.272;2023-06-22T06:25:29;100608.56;;;25.17
62611;BMP280;48683;48.084;17.272;2023-06-22T06:27:54;100610.81;;;25.18
62611;BMP280;48683;48.084;17.272;2023-06-22T06:30:20;100600.41;;;25.22
62611;BMP280;48683;48.084;17.272;2023-06-22T06:32:47;100605.06;;;25.16
62611;BMP280;48683;48.084;17.272;2023-06-22T06:35:14;100604.00;;;25.14
62611;BMP280;48683;48.084;17.272;2023-06-22T06:37:41;100595.09;;;25.19
62611;BMP280;48683;48.084;17.272;2023-06-22T06:40:07;100593.28;;;25.30
62611;BMP280;48683;48.084;17.272;2023-06-22T06:42:46;100585.03;;;25.30
62611;BMP280;48683;48.084;17.272;2023-06-22T06:45:15;100581.03;;;25.46
62611;BMP280;48683;48.084;17.272;2023-06-22T06:47:40;100583.75;;;25.46
62611;BMP280;48683;48.084;17.272;2023-06-22T06:50:06;100591.81;;;25.49
62611;BMP280;48683;48.084;17.272;2023-06-22T06:52:32;100588.88;;;25.53
62611;BMP280;48683;48.084;17.272;2023-06-22T06:54:58;100600.88;;;25.70
62611;BMP280;48683;48.084;17.272;2023-06-22T06:57:23;100596.56;;;25.64
62611;BMP280;48683;48.084;17.272;2023-06-22T06:59:49;100591.38;;;25.91
62611;BMP280;48683;48.084;17.272;2023-06-22T07:02:15;100595.25;;;25.79
62611;BMP280;48683;48.084;17.272;2023-06-22T07:04:41;100590.72;;;25.96
62611;BMP280;48683;48.084;17.272;2023-06-22T07:07:06;100593.19;;;25.94
62611;BMP280;48683;48.084;17.272;2023-06-22T07:09:32;100583.31;;;26.03
62611;BMP280;48683;48.084;17.272;2023-06-22T07:11:57;100585.56;;;26.24
62611;BMP280;48683;48.084;17.272;2023-06-22T07:14:22;100577.31;;;26.50
62611;BMP280;48683;48.084;17.272;2023-06-22T07:16:48;100581.91;;;26.59
62611;BMP280;48683;48.084;17.272;2023-06-22T07:19:13;100571.28;;;26.72
62611;BMP280;48683;48.084;17.272;2023-06-22T07:21:39;100568.16;;;26.84
62611;BMP280;48683;48.084;17.272;2023-06-22T07:24:07;100573.59;;;27.10
62611;BMP280;48683;48.084;17.272;2023-06-22T07:26:32;100573.91;;;27.18
62611;BMP280;48683;48.084;17.272;2023-06-22T07:28:58;100565.00;;;27.34
62611;BMP280;48683;48.084;17.272;2023-06-22T07:31:24;100569.00;;;27.33
62611;BMP280;48683;48.084;17.272;2023-06-22T07:33:50;100559.41;;;27.23
62611;BMP280;48683;48.084;17.272;2023-06-22T07:36:16;100559.50;;;27.34
62611;BMP280;48683;48.084;17.272;2023-06-22T07:38:42;100557.63;;;27.20
62611;BMP280;48683;48.084;17.272;2023-06-22T07:41:07;100554.97;;;27.31
62611;BMP280;48683;48.084;17.272;2023-06-22T07:43:32;100555.88;;;27.54
62611;BMP280;48683;48.084;17.272;2023-06-22T07:46:03;100564.00;;;27.74
62611;BMP280;48683;48.084;17.272;2023-06-22T07:48:28;100551.44;;;27.78
62611;BMP280;48683;48.084;17.272;2023-06-22T07:50:53;100550.25;;;27.85
62611;BMP280;48683;48.084;17.272;2023-06-22T07:53:20;100543.44;;;27.80
62611;BMP280;48683;48.084;17.272;2023-06-22T07:55:46;100543.66;;;27.71
62611;BMP280;48683;48.084;17.272;2023-06-22T07:58:11;100541.38;;;27.64
62611;BMP280;48683;48.084;17.272;2023-06-22T08:00:36;100556.25;;;27.78
62611;BMP280;48683;48.084;17.272;2023-06-22T08:03:02;100546.69;;;27.79
62611;BMP280;48683;48.084;17.272;2023-06-22T08:05:28;100538.72;;;27.98
62611;BMP280;48683;48.084;17.272;2023-06-22T08:07:54;100534.78;;;28.10
62611;BMP280;48683;48.084;17.272;2023-06-22T08:10:20;100531.03;;;28.18
62611;BMP280;48683;48.084;17.272;2023-06-22T08:12:46;100542.34;;;28.20
62611;BMP280;48683;48.084;17.272;2023-06-22T08:15:11;100545.63;;;28.30
62611;BMP280;48683;48.084;17.272;2023-06-22T08:17:37;100535.84;;;28.46
62611;BMP280;48683;48.084;17.272;2023-06-22T08:20:03;100535.84;;;28.46
62611;BMP280;48683;48.084;17.272;2023-06-22T08:22:34;100535.81;;;28.29
62611;BMP280;48683;48.084;17.272;2023-06-22T08:25:01;100533.59;;;28.50
62611;BMP280;48683;48.084;17.272;2023-06-22T08:27:26;100524.06;;;28.62
62611;BMP280;48683;48.084;17.272;2023-06-22T08:29:53;100536.16;;;28.70
62611;BMP280;48683;48.084;17.272;2023-06-22T08:32:23;100529.38;;;28.71
62611;BMP280;48683;48.084;17.272;2023-06-22T08:34:48;100535.13;;;29.06
62611;BMP280;48683;48.084;17.272;2023-06-22T08:37:14;100533.13;;;28.90
62611;BMP280;48683;48.084;17.272;2023-06-22T08:39:39;100545.16;;;29.04
62611;BMP280;48683;48.084;17.272;2023-06-22T08:42:05;100542.13;;;29.13
62611;BMP280;48683;48.084;17.272;2023-06-22T08:44:31;100533.84;;;29.13
62611;BMP280;48683;48.084;17.272;2023-06-22T08:46:57;100537.38;;;29.08
62611;BMP280;48683;48.084;17.272;2023-06-22T08:49:22;100527.03;;;29.36
62611;BMP280;48683;48.084;17.272;2023-06-22T08:51:48;100527.25;;;29.49
62611;BMP280;48683;48.084;17.272;2023-06-22T08:54:14;100523.97;;;29.51
62611;BMP280;48683;48.084;17.272;2023-06-22T08:56:39;100524.97;;;29.48
62611;BMP280;48683;48.084;17.272;2023-06-22T08:59:05;100525.19;;;29.61
62611;BMP280;48683;48.084;17.272;2023-06-22T09:01:33;100513.53;;;29.79
62611;BMP280;48683;48.084;17.272;2023-06-22T09:03:58;100517.72;;;29.97
62611;BMP280;48683;48.084;17.272;2023-06-22T09:06:24;100509.00;;;29.87
62611;BMP280;48683;48.084;17.272;2023-06-22T09:08:50;100518.41;;;30.14
62611;BMP280;48683;48.084;17.272;2023-06-22T09:11:15;100515.78;;;29.86
62611;BMP280;48683;48.084;17.272;2023-06-22T09:13:41;100514.19;;;30.02
62611;BMP280;48683;48.084;17.272;2023-06-22T09:16:06;100510.09;;;30.14
62611;BMP280;48683;48.084;17.272;2023-06-22T09:18:34;100518.31;;;30.25
62611;BMP280;48683;48.084;17.272;2023-06-22T09:20:59;100515.38;;;30.53
62611;BMP280;48683;48.084;17.272;2023-06-22T09:23:25;100528.28;;;30.75
62611;BMP280;48683;48.084;17.272;2023-06-22T09:25:50;100509.56;;;30.56
62611;BMP280;48683;48.084;17.272;2023-06-22T09:28:15;100510.66;;;30.01
62611;BMP280;48683;48.084;17.272;2023-06-22T09:30:42;100502.41;;;30.31
62611;BMP280;48683;48.084;17.272;2023-06-22T09:33:08;100510.13;;;30.49
62611;BMP280;48683;48.084;17.272;2023-06-22T09:35:33;100514.22;;;30.32
62611;BMP280;48683;48.084;17.272;2023-06-22T09:37:59;100499.22;;;30.22
62611;BMP280;48683;48.084;17.272;2023-06-22T09:40:24;100495.38;;;30.30
62611;BMP280;48683;48.084;17.272;2023-06-22T09:42:50;100496.34;;;30.38
62611;BMP280;48683;48.084;17.272;2023-06-22T09:45:15;100495.09;;;30.34
62611;BMP280;48683;48.084;17.272;2023-06-22T09:47:41;100499.13;;;30.33
62611;BMP280;48683;48.084;17.272;2023-06-22T09:50:07;100491.03;;;30.46
62611;BMP280;48683;48.084;17.272;2023-06-22T09:52:33;100489.31;;;30.67
62611;BMP280;48683;48.084;17.272;2023-06-22T09:54:59;100490.72;;;30.79
62611;BMP280;48683;48.084;17.272;2023-06-22T09:57:24;100485.50;;;31.00
62611;BMP280;48683;48.084;17.272;2023-06-22T09:59:49;100486.72;;;31.04
62611;BMP280;48683;48.084;17.272;2023-06-22T10:02:15;100483.75;;;31.21
62611;BMP280;48683;48.084;17.272;2023-06-22T10:04:40;100487.53;;;30.99
62611;BMP280;48683;48.084;17.272;2023-06-22T10:07:05;100487.72;;;30.77
62611;BMP280;48683;48.084;17.272;2023-06-22T10:09:31;100480.97;;;30.73
62611;BMP280;48683;48.084;17.272;2023-06-22T10:11:56;100481.56;;;31.14
62611;BMP280;48683;48.084;17.272;2023-06-22T10:14:22;100481.38;;;31.31
62611;BMP280;48683;48.084;17.272;2023-06-22T10:16:48;100476.59;;;31.50
62611;BMP280;48683;48.084;17.272;2023-06-22T10:19:13;100475.41;;;31.83
62611;BMP280;48683;48.084;17.272;2023-06-22T10:21:39;100485.56;;;31.37
62611;BMP280;48683;48.084;17.272;2023-06-22T10:24:04;100471.34;;;31.28
62611;BMP280;48683;48.084;17.272;2023-06-22T10:26:33;100477.63;;;31.28
62611;BMP280;48683;48.084;17.272;2023-06-22T10:29:00;100476.44;;;31.42
62611;BMP280;48683;48.084;17.272;2023-06-22T10:31:26;100469.88;;;31.21
62611;BMP280;48683;48.084;17.272;2023-06-22T10:33:52;100467.97;;;31.35
62611;BMP280;48683;48.084;17.272;2023-06-22T10:36:18;100469.66;;;31.19
62611;BMP280;48683;48.084;17.272;2023-06-22T10:38:44;100467.09;;;31.21
62611;BMP280;48683;48.084;17.272;2023-06-22T10:41:09;100465.41;;;31.37
62611;BMP280;48683;48.084;17.272;2023-06-22T10:43:34;100459.06;;;31.79
62611;BMP280;48683;48.084;17.272;2023-06-22T10:46:00;100470.38;;;32.00
62611;BMP280;48683;48.084;17.272;2023-06-22T10:48:25;100463.09;;;31.97
62611;BMP280;48683;48.084;17.272;2023-06-22T10:50:50;100461.13;;;31.79
62611;BMP280;48683;48.084;17.272;2023-06-22T10:53:16;100457.94;;;31.88
62611;BMP280;48683;48.084;17.272;2023-06-22T10:55:41;100455.28;;;32.14
62611;BMP280;48683;48.084;17.272;2023-06-22T10:58:06;100452.47;;;32.33
62611;BMP280;48683;48.084;17.272;2023-06-22T11:00:32;100458.59;;;32.13
62611;BMP280;48683;48.084;17.272;2023-06-22T11:02:57;100449.09;;;31.89
62611;BMP280;48683;48.084;17.272;2023-06-22T11:05:23;100449.09;;;31.89
62611;BMP280;48683;48.084;17.272;2023-06-22T11:07:48;100445.88;;;31.85
62611;BMP280;48683;48.084;17.272;2023-06-22T11:10:14;100445.88;;;31.85
62611;BMP280;48683;48.084;17.272;2023-06-22T11:12:40;100438.03;;;32.02
62611;BMP280;48683;48.084;17.272;2023-06-22T11:15:05;100428.94;;;32.21
62611;BMP280;48683;48.084;17.272;2023-06-22T11:17:31;100430.72;;;32.37
62611;BMP280;48683;48.084;17.272;2023-06-22T11:19:56;100424.59;;;32.38
62611;BMP280;48683;48.084;17.272;2023-06-22T11:22:22;100418.66;;;32.47
62611;BMP280;48683;48.084;17.272;2023-06-22T11:24:47;100418.66;;;32.47
62611;BMP280;48683;48.084;17.272;2023-06-22T11:27:12;100421.56;;;32.81
62611;BMP280;48683;48.084;17.272;2023-06-22T11:29:38;100418.81;;;32.94
62611;BMP280;48683;48.084;17.272;2023-06-22T11:32:06;100410.03;;;32.77
62611;BMP280;48683;48.084;17.272;2023-06-22T11:34:32;100411.09;;;33.01
62611;BMP280;48683;48.084;17.272;2023-06-22T11:36:57;100411.09;;;33.01
62611;BMP280;48683;48.084;17.272;2023-06-22T11:39:22;100402.88;;;33.21
62611;BMP280;48683;48.084;17.272;2023-06-22T11:41:47;100402.88;;;33.21
62611;BMP280;48683;48.084;17.272;2023-06-22T11:44:13;100402.25;;;32.76
62611;BMP280;48683;48.084;17.272;2023-06-22T11:46:39;100397.22;;;32.74
62611;BMP280;48683;48.084;17.272;2023-06-22T11:49:04;100407.59;;;32.87
62611;BMP280;48683;48.084;17.272;2023-06-22T11:51:29;100408.84;;;32.99
62611;BMP280;48683;48.084;17.272;2023-06-22T11:53:57;100411.41;;;33.23
62611;BMP280;48683;48.084;17.272;2023-06-22T11:56:22;100401.91;;;32.92
62611;BMP280;48683;48.084;17.272;2023-06-22T11:58:47;100395.06;;;32.93
62611;BMP280;48683;48.084;17.272;2023-06-22T12:01:12;100393.66;;;33.00
62611;BMP280;48683;48.084;17.272;2023-06-22T12:03:40;100387.97;;;33.32
62611;BMP280;48683;48.084;17.272;2023-06-22T12:06:05;100380.97;;;33.38
62611;BMP280;48683;48.084;17.272;2023-06-22T12:08:30;100389.03;;;33.42
62611;BMP280;48683;48.084;17.272;2023-06-22T12:10:55;100389.03;;;33.42
62611;BMP280;48683;48.084;17.272;2023-06-22T12:13:21;100377.91;;;33.63
62611;BMP280;48683;48.084;17.272;2023-06-22T12:15:46;100377.91;;;33.63
62611;BMP280;48683;48.084;17.272;2023-06-22T12:18:11;100384.56;;;33.60
62611;BMP280;48683;48.084;17.272;2023-06-22T12:20:39;100372.44;;;33.36
62611;BMP280;48683;48.084;17.272;2023-06-22T12:23:04;100372.44;;;33.36
62611;BMP280;48683;48.084;17.272;2023-06-22T12:25:30;100368.25;;;32.70
62611;BMP280;48683;48.084;17.272;2023-06-22T12:27:55;100374.22;;;32.87
62611;BMP280;48683;48.084;17.272;2023-06-22T12:30:20;100371.63;;;33.15
62611;BMP280;48683;48.084;17.272;2023-06-22T12:32:45;100365.53;;;33.30
62611;BMP280;48683;48.084;17.272;2023-06-22T12:35:11;100365.47;;;33.43
62611;BMP280;48683;48.084;17.272;2023-06-22T12:37:40;100372.44;;;33.70
62611;BMP280;48683;48.084;17.272;2023-06-22T12:40:06;100364.97;;;33.86
62611;BMP280;48683;48.084;17.272;2023-06-22T12:42:32;100364.97;;;33.86
62611;BMP280;48683;48.084;17.272;2023-06-22T12:44:57;100370.19;;;34.10
62611;BMP280;48683;48.084;17.272;2023-06-22T12:47:22;100378.84;;;33.99
62611;BMP280;48683;48.084;17.272;2023-06-22T12:49:47;100381.44;;;34.18
62611;BMP280;48683;48.084;17.272;2023-06-22T12:52:13;100373.63;;;33.96
62611;BMP280;48683;48.084;17.272;2023-06-22T12:54:38;100360.56;;;33.91
62611;BMP280;48683;48.084;17.272;2023-06-22T12:57:03;100363.91;;;33.55
62611;BMP280;48683;48.084;17.272;2023-06-22T12:59:29;100355.44;;;33.27
62611;BMP280;48683;48.084;17.272;2023-06-22T13:01:54;100360.41;;;33.21
62611;BMP280;48683;48.084;17.272;2023-06-22T13:04:20;100353.88;;;33.52
62611;BMP280;48683;48.084;17.272;2023-06-22T13:06:46;100351.97;;;33.81
62611;BMP280;48683;48.084;17.272;2023-06-22T13:09:13;100344.09;;;33.72
62611;BMP280;48683;48.084;17.272;2023-06-22T13:11:39;100338.53;;;33.72
62611;BMP280;48683;48.084;17.272;2023-06-22T13:14:04;100338.53;;;33.72
62611;BMP280;48683;48.084;17.272;2023-06-22T13:16:29;100350.88;;;33.29
62611;BMP280;48683;48.084;17.272;2023-06-22T13:18:55;100347.06;;;33.40
62611;BMP280;48683;48.084;17.272;2023-06-22T13:21:20;100344.78;;;33.52
62611;BMP280;48683;48.084;17.272;2023-06-22T13:23:45;100335.19;;;33.39
62611;BMP280;48683;48.084;17.272;2023-06-22T13:26:10;100343.16;;;33.69
62611;BMP280;48683;48.084;17.272;2023-06-22T13:28:36;100345.94;;;33.69
62611;BMP280;48683;48.084;17.272;2023-06-22T13:31:01;100339.03;;;33.50
62611;BMP280;48683;48.084;17.272;2023-06-22T13:33:26;100339.03;;;33.50
62611;BMP280;48683;48.084;17.272;2023-06-22T13:35:52;100341.38;;;33.79
62611;BMP280;48683;48.084;17.272;2023-06-22T13:38:17;100341.38;;;33.79
62611;BMP280;48683;48.084;17.272;2023-06-22T13:40:43;100330.84;;;33.65